sensor_id;sensor_type;location;lat;lon;timestamp;P1;durP1;ratioP1;P2;durP2;ratioP2
64633;SDS011;51043;52.406;9.690;2022-08-21T00:02:26;7.88;;;2.92;;
64633;SDS011;51043;52.406;9.690;2022-08-21T00:04:54;6.25;;;2.60;;
64633;SDS011;51043;52.406;9.690;2022-08-21T00:07:24;6.60;;;3.00;;
64633;SDS011;51043;52.406;9.690;2022-08-21T00:09:52;8.83;;;3.33;;
64633;SDS011;51043;52.406;9.690;2022-08-21T00:12:19;7.83;;;2.87;;
64633;SDS011;51043;52.406;9.690;2022-08-21T00:14:46;9.43;;;2.97;;
64633;SDS011;51043;52.406;9.690;2022-08-21T00:17:14;11.27;;;3.15;;
64633;SDS011;51043;52.406;9.690;2022-08-21T00:19:41;6.30;;;2.90;;
64633;SDS011;51043;52.406;9.690;2022-08-21T00:22:08;10.43;;;3.47;;
64633;SDS011;51043;52.406;9.690;2022-08-21T00:24:35;8.83;;;2.87;;
64633;SDS011;51043;52.406;9.690;2022-08-21T00:27:02;8.30;;;3.17;;
64633;SDS011;51043;52.406;9.690;2022-08-21T00:29:29;9.03;;;3.00;;
64633;SDS011;51043;52.406;9.690;2022-08-21T00:31:56;6.22;;;3.00;;
64633;SDS011;51043;52.406;9.690;2022-08-21T00:34:23;9.93;;;3.00;;
64633;SDS011;51043;52.406;9.690;2022-08-21T00:36:57;7.10;;;3.58;;
64633;SDS011;51043;52.406;9.690;2022-08-21T00:39:23;7.37;;;3.37;;
64633;SDS011;51043;52.406;9.690;2022-08-21T00:41:54;8.40;;;3.60;;
64633;SDS011;51043;52.406;9.690;2022-08-21T00:44:21;7.80;;;3.45;;
64633;SDS011;51043;52.406;9.690;2022-08-21T00:46:48;10.40;;;3.70;;
64633;SDS011;51043;52.406;9.690;2022-08-21T00:49:15;11.30;;;3.60;;
64633;SDS011;51043;52.406;9.690;2022-08-21T00:54:11;11.60;;;3.23;;
64633;SDS011;51043;52.406;9.690;2022-08-21T00:56:39;9.83;;;3.53;;
64633;SDS011;51043;52.406;9.690;2022-08-21T00:59:06;8.37;;;3.27;;
64633;SDS011;51043;52.406;9.690;2022-08-21T01:01:34;7.97;;;2.90;;
64633;SDS011;51043;52.406;9.690;2022-08-21T01:04:02;8.30;;;3.60;;
64633;SDS011;51043;52.406;9.690;2022-08-21T01:06:29;11.50;;;3.60;;
64633;SDS011;51043;52.406;9.690;2022-08-21T01:08:56;6.87;;;3.43;;
64633;SDS011;51043;52.406;9.690;2022-08-21T01:11:24;9.70;;;3.50;;
64633;SDS011;51043;52.406;9.690;2022-08-21T01:13:57;7.73;;;3.27;;
64633;SDS011;51043;52.406;9.690;2022-08-21T01:16:24;6.33;;;3.00;;
64633;SDS011;51043;52.406;9.690;2022-08-21T01:18:52;8.20;;;3.30;;
64633;SDS011;51043;52.406;9.690;2022-08-21T01:21:20;12.43;;;3.90;;
64633;SDS011;51043;52.406;9.690;2022-08-21T01:23:51;11.83;;;3.43;;
64633;SDS011;51043;52.406;9.690;2022-08-21T01:26:22;9.07;;;3.37;;
64633;SDS011;51043;52.406;9.690;2022-08-21T01:28:54;12.27;;;3.43;;
64633;SDS011;51043;52.406;9.690;2022-08-21T01:31:26;7.20;;;3.37;;
64633;SDS011;51043;52.406;9.690;2022-08-21T01:33:59;9.43;;;4.27;;
64633;SDS011;51043;52.406;9.690;2022-08-21T01:36:27;7.17;;;3.70;;
64633;SDS011;51043;52.406;9.690;2022-08-21T01:38:55;9.90;;;4.03;;
64633;SDS011;51043;52.406;9.690;2022-08-21T01:41:23;8.30;;;3.57;;
64633;SDS011;51043;52.406;9.690;2022-08-21T01:43:50;8.80;;;3.93;;
64633;SDS011;51043;52.406;9.690;2022-08-21T01:46:17;7.80;;;3.70;;
64633;SDS011;51043;52.406;9.690;2022-08-21T01:48:44;8.60;;;3.50;;
64633;SDS011;51043;52.406;9.690;2022-08-21T01:51:11;11.90;;;3.90;;
64633;SDS011;51043;52.406;9.690;2022-08-21T01:53:38;5.77;;;3.50;;
64633;SDS011;51043;52.406;9.690;2022-08-21T01:56:06;12.50;;;3.43;;
64633;SDS011;51043;52.406;9.690;2022-08-21T01:58:35;5.33;;;2.97;;
64633;SDS011;51043;52.406;9.690;2022-08-21T02:01:03;8.60;;;3.50;;
64633;SDS011;51043;52.406;9.690;2022-08-21T02:03:30;12.73;;;4.20;;
64633;SDS011;51043;52.406;9.690;2022-08-21T02:06:00;10.73;;;3.90;;
64633;SDS011;51043;52.406;9.690;2022-08-21T02:08:28;7.70;;;3.53;;
64633;SDS011;51043;52.406;9.690;2022-08-21T02:10:56;8.70;;;3.30;;
64633;SDS011;51043;52.406;9.690;2022-08-21T02:13:23;11.03;;;3.90;;
64633;SDS011;51043;52.406;9.690;2022-08-21T02:15:52;11.77;;;4.20;;
64633;SDS011;51043;52.406;9.690;2022-08-21T02:18:24;11.57;;;3.87;;
64633;SDS011;51043;52.406;9.690;2022-08-21T02:20:54;8.43;;;3.70;;
64633;SDS011;51043;52.406;9.690;2022-08-21T02:23:22;7.03;;;3.67;;
64633;SDS011;51043;52.406;9.690;2022-08-21T02:25:50;11.40;;;3.50;;
64633;SDS011;51043;52.406;9.690;2022-08-21T02:28:19;8.87;;;3.47;;
64633;SDS011;51043;52.406;9.690;2022-08-21T02:30:49;10.30;;;3.57;;
64633;SDS011;51043;52.406;9.690;2022-08-21T02:33:18;8.00;;;3.20;;
64633;SDS011;51043;52.406;9.690;2022-08-21T02:35:50;7.77;;;4.10;;
64633;SDS011;51043;52.406;9.690;2022-08-21T02:38:19;7.57;;;3.50;;
64633;SDS011;51043;52.406;9.690;2022-08-21T02:40:53;13.23;;;4.67;;
64633;SDS011;51043;52.406;9.690;2022-08-21T02:43:23;12.27;;;6.47;;
64633;SDS011;51043;52.406;9.690;2022-08-21T02:45:55;12.90;;;5.07;;
64633;SDS011;51043;52.406;9.690;2022-08-21T02:48:25;9.43;;;4.80;;
64633;SDS011;51043;52.406;9.690;2022-08-21T02:50:57;10.37;;;4.43;;
64633;SDS011;51043;52.406;9.690;2022-08-21T02:53:31;9.90;;;4.10;;
64633;SDS011;51043;52.406;9.690;2022-08-21T02:56:02;10.73;;;4.10;;
64633;SDS011;51043;52.406;9.690;2022-08-21T02:58:42;11.73;;;4.10;;
64633;SDS011;51043;52.406;9.690;2022-08-21T03:01:11;9.17;;;3.80;;
64633;SDS011;51043;52.406;9.690;2022-08-21T03:03:40;9.17;;;3.83;;
64633;SDS011;51043;52.406;9.690;2022-08-21T03:06:09;10.03;;;3.70;;
64633;SDS011;51043;52.406;9.690;2022-08-21T03:08:38;12.53;;;4.23;;
64633;SDS011;51043;52.406;9.690;2022-08-21T03:11:06;9.07;;;4.27;;
64633;SDS011;51043;52.406;9.690;2022-08-21T03:13:34;13.10;;;3.90;;
64633;SDS011;51043;52.406;9.690;2022-08-21T03:16:01;9.30;;;3.80;;
64633;SDS011;51043;52.406;9.690;2022-08-21T03:18:35;7.20;;;3.90;;
64633;SDS011;51043;52.406;9.690;2022-08-21T03:21:02;8.07;;;3.53;;
64633;SDS011;51043;52.406;9.690;2022-08-21T03:23:32;9.17;;;3.63;;
64633;SDS011;51043;52.406;9.690;2022-08-21T03:26:02;9.17;;;3.90;;
64633;SDS011;51043;52.406;9.690;2022-08-21T03:28:29;11.17;;;4.10;;
64633;SDS011;51043;52.406;9.690;2022-08-21T03:31:02;10.27;;;3.90;;
64633;SDS011;51043;52.406;9.690;2022-08-21T03:33:29;7.53;;;3.93;;
64633;SDS011;51043;52.406;9.690;2022-08-21T03:36:06;8.47;;;3.87;;
64633;SDS011;51043;52.406;9.690;2022-08-21T03:38:35;8.27;;;3.87;;
64633;SDS011;51043;52.406;9.690;2022-08-21T03:41:07;8.20;;;3.63;;
64633;SDS011;51043;52.406;9.690;2022-08-21T03:43:35;7.00;;;3.40;;
64633;SDS011;51043;52.406;9.690;2022-08-21T03:46:04;7.73;;;3.47;;
64633;SDS011;51043;52.406;9.690;2022-08-21T03:48:36;16.10;;;4.33;;
64633;SDS011;51043;52.406;9.690;2022-08-21T03:51:06;8.83;;;3.73;;
64633;SDS011;51043;52.406;9.690;2022-08-21T03:53:33;9.67;;;3.83;;
64633;SDS011;51043;52.406;9.690;2022-08-21T03:56:03;7.03;;;3.60;;
64633;SDS011;51043;52.406;9.690;2022-08-21T03:58:31;10.73;;;3.47;;
64633;SDS011;51043;52.406;9.690;2022-08-21T04:00:59;8.70;;;3.60;;
64633;SDS011;51043;52.406;9.690;2022-08-21T04:03:27;7.47;;;3.13;;
64633;SDS011;51043;52.406;9.690;2022-08-21T04:05:55;5.77;;;3.33;;
64633;SDS011;51043;52.406;9.690;2022-08-21T04:08:22;8.70;;;3.43;;
64633;SDS011;51043;52.406;9.690;2022-08-21T04:10:53;9.53;;;3.80;;
64633;SDS011;51043;52.406;9.690;2022-08-21T04:13:22;8.70;;;3.60;;
64633;SDS011;51043;52.406;9.690;2022-08-21T04:15:49;7.53;;;3.27;;
64633;SDS011;51043;52.406;9.690;2022-08-21T04:18:16;8.60;;;3.40;;
64633;SDS011;51043;52.406;9.690;2022-08-21T04:20:44;12.02;;;3.40;;
64633;SDS011;51043;52.406;9.690;2022-08-21T04:23:12;10.40;;;3.90;;
64633;SDS011;51043;52.406;9.690;2022-08-21T04:25:39;8.13;;;3.10;;
64633;SDS011;51043;52.406;9.690;2022-08-21T04:28:06;13.98;;;3.80;;
64633;SDS011;51043;52.406;9.690;2022-08-21T04:30:33;11.32;;;3.65;;
64633;SDS011;51043;52.406;9.690;2022-08-21T04:33:01;8.75;;;3.30;;
64633;SDS011;51043;52.406;9.690;2022-08-21T04:35:29;12.25;;;3.63;;
64633;SDS011;51043;52.406;9.690;2022-08-21T04:38:00;7.18;;;3.10;;
64633;SDS011;51043;52.406;9.690;2022-08-21T04:40:27;8.45;;;3.65;;
64633;SDS011;51043;52.406;9.690;2022-08-21T04:43:01;12.43;;;3.13;;
64633;SDS011;51043;52.406;9.690;2022-08-21T04:45:32;12.50;;;3.30;;
64633;SDS011;51043;52.406;9.690;2022-08-21T04:48:03;9.93;;;3.22;;
64633;SDS011;51043;52.406;9.690;2022-08-21T04:53:22;8.10;;;3.38;;
64633;SDS011;51043;52.406;9.690;2022-08-21T04:55:54;9.32;;;3.35;;
64633;SDS011;51043;52.406;9.690;2022-08-21T04:58:24;9.40;;;3.33;;
64633;SDS011;51043;52.406;9.690;2022-08-21T05:00:54;9.57;;;3.38;;
64633;SDS011;51043;52.406;9.690;2022-08-21T05:03:22;17.70;;;3.60;;
64633;SDS011;51043;52.406;9.690;2022-08-21T05:05:50;9.95;;;3.53;;
64633;SDS011;51043;52.406;9.690;2022-08-21T05:08:18;16.73;;;3.20;;
64633;SDS011;51043;52.406;9.690;2022-08-21T05:10:47;11.05;;;3.20;;
64633;SDS011;51043;52.406;9.690;2022-08-21T05:13:15;12.32;;;3.08;;
64633;SDS011;51043;52.406;9.690;2022-08-21T05:15:43;9.13;;;2.95;;
64633;SDS011;51043;52.406;9.690;2022-08-21T05:18:10;9.02;;;3.13;;
64633;SDS011;51043;52.406;9.690;2022-08-21T05:20:37;12.25;;;3.53;;
64633;SDS011;51043;52.406;9.690;2022-08-21T05:23:06;9.35;;;3.35;;
64633;SDS011;51043;52.406;9.690;2022-08-21T05:25:38;13.20;;;3.28;;
64633;SDS011;51043;52.406;9.690;2022-08-21T05:28:05;10.13;;;2.95;;
64633;SDS011;51043;52.406;9.690;2022-08-21T05:30:33;12.75;;;3.30;;
64633;SDS011;51043;52.406;9.690;2022-08-21T05:33:02;10.68;;;3.05;;
64633;SDS011;51043;52.406;9.690;2022-08-21T05:35:30;9.80;;;3.05;;
64633;SDS011;51043;52.406;9.690;2022-08-21T05:37:59;6.57;;;2.72;;
64633;SDS011;51043;52.406;9.690;2022-08-21T05:40:26;6.72;;;3.17;;
64633;SDS011;51043;52.406;9.690;2022-08-21T05:42:56;11.85;;;3.13;;
64633;SDS011;51043;52.406;9.690;2022-08-21T05:45:26;8.18;;;2.60;;
64633;SDS011;51043;52.406;9.690;2022-08-21T05:48:36;7.55;;;2.65;;
64633;SDS011;51043;52.406;9.690;2022-08-21T05:51:03;8.13;;;2.67;;
64633;SDS011;51043;52.406;9.690;2022-08-21T05:53:31;9.88;;;2.50;;
64633;SDS011;51043;52.406;9.690;2022-08-21T05:56:01;9.95;;;2.88;;
64633;SDS011;51043;52.406;9.690;2022-08-21T05:58:30;10.10;;;2.63;;
64633;SDS011;51043;52.406;9.690;2022-08-21T06:01:00;8.65;;;2.90;;
64633;SDS011;51043;52.406;9.690;2022-08-21T06:03:29;7.95;;;2.90;;
64633;SDS011;51043;52.406;9.690;2022-08-21T06:06:01;8.60;;;2.80;;
64633;SDS011;51043;52.406;9.690;2022-08-21T06:08:28;9.35;;;3.00;;
64633;SDS011;51043;52.406;9.690;2022-08-21T06:10:57;7.78;;;2.88;;
64633;SDS011;51043;52.406;9.690;2022-08-21T06:13:26;9.32;;;3.05;;
64633;SDS011;51043;52.406;9.690;2022-08-21T06:16:00;9.40;;;3.22;;
64633;SDS011;51043;52.406;9.690;2022-08-21T06:18:33;8.98;;;2.75;;
64633;SDS011;51043;52.406;9.690;2022-08-21T06:21:03;6.88;;;2.30;;
64633;SDS011;51043;52.406;9.690;2022-08-21T06:23:31;7.78;;;2.42;;
64633;SDS011;51043;52.406;9.690;2022-08-21T06:26:02;8.32;;;2.75;;
64633;SDS011;51043;52.406;9.690;2022-08-21T06:28:31;6.82;;;2.58;;
64633;SDS011;51043;52.406;9.690;2022-08-21T06:31:00;6.97;;;2.60;;
64633;SDS011;51043;52.406;9.690;2022-08-21T06:33:27;11.00;;;2.90;;
64633;SDS011;51043;52.406;9.690;2022-08-21T06:35:57;6.75;;;2.50;;
64633;SDS011;51043;52.406;9.690;2022-08-21T06:38:24;7.60;;;2.40;;
64633;SDS011;51043;52.406;9.690;2022-08-21T06:40:51;6.40;;;2.28;;
64633;SDS011;51043;52.406;9.690;2022-08-21T06:43:18;9.40;;;2.90;;
64633;SDS011;51043;52.406;9.690;2022-08-21T06:45:45;7.75;;;2.88;;
64633;SDS011;51043;52.406;9.690;2022-08-21T06:48:13;9.23;;;2.70;;
64633;SDS011;51043;52.406;9.690;2022-08-21T06:50:43;8.02;;;2.67;;
64633;SDS011;51043;52.406;9.690;2022-08-21T06:53:12;8.75;;;2.70;;
64633;SDS011;51043;52.406;9.690;2022-08-21T06:55:41;9.57;;;2.90;;
64633;SDS011;51043;52.406;9.690;2022-08-21T06:58:09;8.68;;;2.63;;
64633;SDS011;51043;52.406;9.690;2022-08-21T07:00:41;12.52;;;2.80;;
64633;SDS011;51043;52.406;9.690;2022-08-21T07:03:23;11.60;;;2.47;;
64633;SDS011;51043;52.406;9.690;2022-08-21T07:05:51;14.70;;;2.70;;
64633;SDS011;51043;52.406;9.690;2022-08-21T07:08:19;8.15;;;3.25;;
64633;SDS011;51043;52.406;9.690;2022-08-21T07:10:48;8.18;;;2.58;;
64633;SDS011;51043;52.406;9.690;2022-08-21T07:13:15;7.55;;;3.08;;
64633;SDS011;51043;52.406;9.690;2022-08-21T07:15:42;9.00;;;2.90;;
64633;SDS011;51043;52.406;9.690;2022-08-21T07:18:11;9.40;;;3.03;;
64633;SDS011;51043;52.406;9.690;2022-08-21T07:20:39;8.50;;;2.85;;
64633;SDS011;51043;52.406;9.690;2022-08-21T07:23:08;9.98;;;3.00;;
64633;SDS011;51043;52.406;9.690;2022-08-21T07:25:45;8.18;;;2.88;;
64633;SDS011;51043;52.406;9.690;2022-08-21T07:28:12;9.38;;;2.88;;
64633;SDS011;51043;52.406;9.690;2022-08-21T07:30:39;8.05;;;2.63;;
64633;SDS011;51043;52.406;9.690;2022-08-21T07:33:06;8.35;;;2.50;;
64633;SDS011;51043;52.406;9.690;2022-08-21T07:35:36;9.70;;;2.65;;
64633;SDS011;51043;52.406;9.690;2022-08-21T07:38:06;8.05;;;2.80;;
64633;SDS011;51043;52.406;9.690;2022-08-21T07:40:33;13.27;;;2.88;;
64633;SDS011;51043;52.406;9.690;2022-08-21T07:43:05;7.57;;;2.60;;
64633;SDS011;51043;52.406;9.690;2022-08-21T07:45:32;7.30;;;2.67;;
64633;SDS011;51043;52.406;9.690;2022-08-21T07:48:02;8.80;;;2.78;;
64633;SDS011;51043;52.406;9.690;2022-08-21T07:50:30;9.80;;;3.00;;
64633;SDS011;51043;52.406;9.690;2022-08-21T07:53:05;8.55;;;2.78;;
64633;SDS011;51043;52.406;9.690;2022-08-21T07:55:33;6.95;;;2.47;;
64633;SDS011;51043;52.406;9.690;2022-08-21T07:58:03;5.38;;;2.13;;
64633;SDS011;51043;52.406;9.690;2022-08-21T08:00:30;6.82;;;2.40;;
64633;SDS011;51043;52.406;9.690;2022-08-21T08:03:06;9.05;;;2.50;;
64633;SDS011;51043;52.406;9.690;2022-08-21T08:05:33;7.65;;;2.58;;
64633;SDS011;51043;52.406;9.690;2022-08-21T08:08:04;5.78;;;2.25;;
64633;SDS011;51043;52.406;9.690;2022-08-21T08:10:30;7.82;;;2.58;;
64633;SDS011;51043;52.406;9.690;2022-08-21T08:12:58;6.03;;;1.95;;
64633;SDS011;51043;52.406;9.690;2022-08-21T08:15:26;5.72;;;2.13;;
64633;SDS011;51043;52.406;9.690;2022-08-21T08:17:55;6.20;;;2.38;;
64633;SDS011;51043;52.406;9.690;2022-08-21T08:20:23;9.48;;;2.30;;
64633;SDS011;51043;52.406;9.690;2022-08-21T08:22:53;9.40;;;2.15;;
64633;SDS011;51043;52.406;9.690;2022-08-21T08:25:24;7.78;;;2.47;;
64633;SDS011;51043;52.406;9.690;2022-08-21T08:27:52;8.38;;;2.60;;
64633;SDS011;51043;52.406;9.690;2022-08-21T08:30:19;9.18;;;2.60;;
64633;SDS011;51043;52.406;9.690;2022-08-21T08:32:48;8.45;;;2.35;;
64633;SDS011;51043;52.406;9.690;2022-08-21T08:35:15;6.40;;;2.20;;
64633;SDS011;51043;52.406;9.690;2022-08-21T08:37:43;6.60;;;2.03;;
64633;SDS011;51043;52.406;9.690;2022-08-21T08:40:24;9.63;;;2.20;;
64633;SDS011;51043;52.406;9.690;2022-08-21T08:43:06;11.13;;;2.97;;
64633;SDS011;51043;52.406;9.690;2022-08-21T08:45:34;10.45;;;3.08;;
64633;SDS011;51043;52.406;9.690;2022-08-21T08:48:09;9.25;;;2.83;;
64633;SDS011;51043;52.406;9.690;2022-08-21T08:50:47;8.57;;;2.55;;
64633;SDS011;51043;52.406;9.690;2022-08-21T08:53:22;8.50;;;2.35;;
64633;SDS011;51043;52.406;9.690;2022-08-21T08:55:55;7.30;;;2.42;;
64633;SDS011;51043;52.406;9.690;2022-08-21T08:58:28;11.30;;;2.65;;
64633;SDS011;51043;52.406;9.690;2022-08-21T09:00:59;6.68;;;2.28;;
64633;SDS011;51043;52.406;9.690;2022-08-21T09:03:27;7.30;;;2.45;;
64633;SDS011;51043;52.406;9.690;2022-08-21T09:08:39;7.32;;;2.10;;
64633;SDS011;51043;52.406;9.690;2022-08-21T09:14:41;6.80;;;2.13;;
64633;SDS011;51043;52.406;9.690;2022-08-21T09:17:32;6.95;;;2.20;;
64633;SDS011;51043;52.406;9.690;2022-08-21T09:22:45;6.43;;;2.35;;
64633;SDS011;51043;52.406;9.690;2022-08-21T09:25:21;6.70;;;2.30;;
64633;SDS011;51043;52.406;9.690;2022-08-21T09:27:50;7.57;;;2.45;;
64633;SDS011;51043;52.406;9.690;2022-08-21T09:30:18;10.45;;;2.85;;
64633;SDS011;51043;52.406;9.690;2022-08-21T09:32:51;8.10;;;2.50;;
64633;SDS011;51043;52.406;9.690;2022-08-21T09:35:19;7.18;;;1.90;;
64633;SDS011;51043;52.406;9.690;2022-08-21T09:40:33;8.05;;;2.72;;
64633;SDS011;51043;52.406;9.690;2022-08-21T09:43:02;7.40;;;2.80;;
64633;SDS011;51043;52.406;9.690;2022-08-21T09:45:30;12.15;;;2.70;;
64633;SDS011;51043;52.406;9.690;2022-08-21T09:48:10;6.22;;;2.38;;
64633;SDS011;51043;52.406;9.690;2022-08-21T09:51:06;9.15;;;2.50;;
64633;SDS011;51043;52.406;9.690;2022-08-21T09:53:39;9.43;;;2.50;;
64633;SDS011;51043;52.406;9.690;2022-08-21T09:59:32;7.18;;;2.35;;
64633;SDS011;51043;52.406;9.690;2022-08-21T10:02:30;5.43;;;2.40;;
64633;SDS011;51043;52.406;9.690;2022-08-21T10:05:04;5.00;;;2.10;;
64633;SDS011;51043;52.406;9.690;2022-08-21T10:07:41;6.40;;;2.30;;
64633;SDS011;51043;52.406;9.690;2022-08-21T10:10:22;9.23;;;2.72;;
64633;SDS011;51043;52.406;9.690;2022-08-21T10:15:56;6.40;;;2.30;;
64633;SDS011;51043;52.406;9.690;2022-08-21T10:18:42;8.23;;;2.35;;
64633;SDS011;51043;52.406;9.690;2022-08-21T10:21:37;6.82;;;2.42;;
64633;SDS011;51043;52.406;9.690;2022-08-21T10:24:29;5.95;;;2.20;;
64633;SDS011;51043;52.406;9.690;2022-08-21T10:27:12;7.53;;;2.42;;
64633;SDS011;51043;52.406;9.690;2022-08-21T10:41:18;8.73;;;2.45;;
64633;SDS011;51043;52.406;9.690;2022-08-21T10:46:41;8.73;;;2.60;;
64633;SDS011;51043;52.406;9.690;2022-08-21T10:49:44;4.97;;;1.98;;
64633;SDS011;51043;52.406;9.690;2022-08-21T11:00:27;7.53;;;2.60;;
64633;SDS011;51043;52.406;9.690;2022-08-21T11:03:31;8.35;;;2.38;;
64633;SDS011;51043;52.406;9.690;2022-08-21T11:06:11;8.23;;;2.50;;
64633;SDS011;51043;52.406;9.690;2022-08-21T11:08:58;7.70;;;2.30;;
64633;SDS011;51043;52.406;9.690;2022-08-21T11:11:51;10.02;;;2.20;;
64633;SDS011;51043;52.406;9.690;2022-08-21T11:17:22;5.63;;;2.10;;
64633;SDS011;51043;52.406;9.690;2022-08-21T11:22:39;6.53;;;2.03;;
64633;SDS011;51043;52.406;9.690;2022-08-21T11:25:21;9.52;;;2.25;;
64633;SDS011;51043;52.406;9.690;2022-08-21T11:27:58;7.22;;;2.05;;
64633;SDS011;51043;52.406;9.690;2022-08-21T11:30:39;4.70;;;1.85;;
64633;SDS011;51043;52.406;9.690;2022-08-21T11:35:57;5.55;;;2.20;;
64633;SDS011;51043;52.406;9.690;2022-08-21T11:38:42;4.57;;;1.90;;
64633;SDS011;51043;52.406;9.690;2022-08-21T11:41:29;6.10;;;2.25;;
64633;SDS011;51043;52.406;9.690;2022-08-21T11:44:01;6.68;;;2.17;;
64633;SDS011;51043;52.406;9.690;2022-08-21T11:52:55;5.47;;;2.35;;
64633;SDS011;51043;52.406;9.690;2022-08-21T11:55:32;5.38;;;2.15;;
64633;SDS011;51043;52.406;9.690;2022-08-21T12:00:58;4.68;;;2.13;;
64633;SDS011;51043;52.406;9.690;2022-08-21T12:03:38;3.85;;;1.98;;
64633;SDS011;51043;52.406;9.690;2022-08-21T12:06:12;5.90;;;2.38;;
64633;SDS011;51043;52.406;9.690;2022-08-21T12:08:41;5.15;;;1.90;;
64633;SDS011;51043;52.406;9.690;2022-08-21T12:11:22;6.32;;;2.13;;
64633;SDS011;51043;52.406;9.690;2022-08-21T12:16:36;7.75;;;2.00;;
64633;SDS011;51043;52.406;9.690;2022-08-21T12:19:06;4.20;;;1.90;;
64633;SDS011;51043;52.406;9.690;2022-08-21T12:24:44;4.57;;;1.95;;
64633;SDS011;51043;52.406;9.690;2022-08-21T12:27:29;4.80;;;1.67;;
64633;SDS011;51043;52.406;9.690;2022-08-21T12:30:04;8.93;;;2.25;;
64633;SDS011;51043;52.406;9.690;2022-08-21T12:32:43;4.65;;;2.03;;
64633;SDS011;51043;52.406;9.690;2022-08-21T12:35:16;5.93;;;2.22;;
64633;SDS011;51043;52.406;9.690;2022-08-21T12:37:59;5.50;;;2.17;;
64633;SDS011;51043;52.406;9.690;2022-08-21T12:40:43;5.60;;;1.92;;
64633;SDS011;51043;52.406;9.690;2022-08-21T12:43:21;5.30;;;1.85;;
64633;SDS011;51043;52.406;9.690;2022-08-21T12:45:58;8.82;;;1.95;;
64633;SDS011;51043;52.406;9.690;2022-08-21T12:48:35;5.03;;;2.00;;
64633;SDS011;51043;52.406;9.690;2022-08-21T12:51:19;5.55;;;2.15;;
64633;SDS011;51043;52.406;9.690;2022-08-21T12:53:53;10.93;;;2.15;;
64633;SDS011;51043;52.406;9.690;2022-08-21T12:56:27;4.18;;;2.10;;
64633;SDS011;51043;52.406;9.690;2022-08-21T12:58:57;4.03;;;1.83;;
64633;SDS011;51043;52.406;9.690;2022-08-21T13:01:35;3.85;;;1.60;;
64633;SDS011;51043;52.406;9.690;2022-08-21T13:04:13;7.72;;;2.00;;
64633;SDS011;51043;52.406;9.690;2022-08-21T13:06:45;6.05;;;1.90;;
64633;SDS011;51043;52.406;9.690;2022-08-21T13:09:15;8.43;;;2.10;;
64633;SDS011;51043;52.406;9.690;2022-08-21T13:11:45;7.78;;;2.05;;
64633;SDS011;51043;52.406;9.690;2022-08-21T13:14:20;5.03;;;1.83;;
64633;SDS011;51043;52.406;9.690;2022-08-21T13:16:55;7.60;;;2.45;;
64633;SDS011;51043;52.406;9.690;2022-08-21T13:19:24;5.70;;;1.80;;
64633;SDS011;51043;52.406;9.690;2022-08-21T13:21:59;2.83;;;1.50;;
64633;SDS011;51043;52.406;9.690;2022-08-21T13:24:30;5.70;;;1.88;;
64633;SDS011;51043;52.406;9.690;2022-08-21T13:27:17;5.13;;;2.00;;
64633;SDS011;51043;52.406;9.690;2022-08-21T13:29:59;4.45;;;1.60;;
64633;SDS011;51043;52.406;9.690;2022-08-21T13:32:49;4.00;;;2.10;;
64633;SDS011;51043;52.406;9.690;2022-08-21T13:35:24;5.30;;;2.00;;
64633;SDS011;51043;52.406;9.690;2022-08-21T13:37:54;4.03;;;1.92;;
64633;SDS011;51043;52.406;9.690;2022-08-21T13:40:32;4.05;;;1.80;;
64633;SDS011;51043;52.406;9.690;2022-08-21T13:43:17;5.32;;;1.90;;
64633;SDS011;51043;52.406;9.690;2022-08-21T13:45:51;6.43;;;1.98;;
64633;SDS011;51043;52.406;9.690;2022-08-21T13:48:20;11.25;;;1.95;;
64633;SDS011;51043;52.406;9.690;2022-08-21T13:50:51;6.10;;;2.00;;
64633;SDS011;51043;52.406;9.690;2022-08-21T13:53:29;6.15;;;1.83;;
64633;SDS011;51043;52.406;9.690;2022-08-21T13:55:59;5.45;;;1.90;;
64633;SDS011;51043;52.406;9.690;2022-08-21T13:58:49;4.53;;;1.90;;
64633;SDS011;51043;52.406;9.690;2022-08-21T14:01:24;6.10;;;2.17;;
64633;SDS011;51043;52.406;9.690;2022-08-21T14:04:01;5.10;;;2.00;;
64633;SDS011;51043;52.406;9.690;2022-08-21T14:06:43;5.90;;;2.13;;
64633;SDS011;51043;52.406;9.690;2022-08-21T14:09:13;7.75;;;1.95;;
64633;SDS011;51043;52.406;9.690;2022-08-21T14:11:48;4.45;;;1.77;;
64633;SDS011;51043;52.406;9.690;2022-08-21T14:14:21;5.18;;;1.90;;
64633;SDS011;51043;52.406;9.690;2022-08-21T14:19:28;6.65;;;1.98;;
64633;SDS011;51043;52.406;9.690;2022-08-21T14:22:28;5.75;;;2.10;;
64633;SDS011;51043;52.406;9.690;2022-08-21T14:27:49;7.45;;;2.13;;
64633;SDS011;51043;52.406;9.690;2022-08-21T14:30:28;3.95;;;1.80;;
64633;SDS011;51043;52.406;9.690;2022-08-21T14:33:09;4.95;;;1.95;;
64633;SDS011;51043;52.406;9.690;2022-08-21T14:35:40;4.88;;;2.10;;
64633;SDS011;51043;52.406;9.690;2022-08-21T14:38:13;6.70;;;1.88;;
64633;SDS011;51043;52.406;9.690;2022-08-21T14:40:48;5.60;;;1.95;;
64633;SDS011;51043;52.406;9.690;2022-08-21T14:43:30;7.40;;;2.13;;
64633;SDS011;51043;52.406;9.690;2022-08-21T14:45:58;4.85;;;1.98;;
64633;SDS011;51043;52.406;9.690;2022-08-21T14:48:27;8.50;;;2.15;;
64633;SDS011;51043;52.406;9.690;2022-08-21T14:50:57;6.28;;;1.95;;
64633;SDS011;51043;52.406;9.690;2022-08-21T14:53:26;6.68;;;2.10;;
64633;SDS011;51043;52.406;9.690;2022-08-21T14:55:56;5.07;;;2.08;;
64633;SDS011;51043;52.406;9.690;2022-08-21T14:58:37;5.15;;;2.20;;
64633;SDS011;51043;52.406;9.690;2022-08-21T15:01:16;3.85;;;1.90;;
64633;SDS011;51043;52.406;9.690;2022-08-21T15:03:45;7.40;;;2.20;;
64633;SDS011;51043;52.406;9.690;2022-08-21T15:06:14;6.30;;;2.00;;
64633;SDS011;51043;52.406;9.690;2022-08-21T15:08:42;7.03;;;2.13;;
64633;SDS011;51043;52.406;9.690;2022-08-21T15:11:13;6.13;;;2.10;;
64633;SDS011;51043;52.406;9.690;2022-08-21T15:13:46;4.18;;;2.33;;
64633;SDS011;51043;52.406;9.690;2022-08-21T15:16:14;3.63;;;2.05;;
64633;SDS011;51043;52.406;9.690;2022-08-21T15:18:41;5.63;;;2.20;;
64633;SDS011;51043;52.406;9.690;2022-08-21T15:21:11;5.30;;;1.98;;
64633;SDS011;51043;52.406;9.690;2022-08-21T15:23:38;6.45;;;2.40;;
64633;SDS011;51043;52.406;9.690;2022-08-21T15:26:07;7.70;;;2.30;;
64633;SDS011;51043;52.406;9.690;2022-08-21T15:28:34;6.15;;;2.08;;
64633;SDS011;51043;52.406;9.690;2022-08-21T15:31:04;5.80;;;2.13;;
64633;SDS011;51043;52.406;9.690;2022-08-21T15:33:31;6.07;;;2.08;;
64633;SDS011;51043;52.406;9.690;2022-08-21T15:36:03;4.47;;;2.17;;
64633;SDS011;51043;52.406;9.690;2022-08-21T15:38:31;8.65;;;2.25;;
64633;SDS011;51043;52.406;9.690;2022-08-21T15:40:59;9.60;;;2.00;;
64633;SDS011;51043;52.406;9.690;2022-08-21T15:43:54;6.68;;;2.20;;
64633;SDS011;51043;52.406;9.690;2022-08-21T15:46:19;5.53;;;2.08;;
64633;SDS011;51043;52.406;9.690;2022-08-21T15:48:48;6.82;;;2.22;;
64633;SDS011;51043;52.406;9.690;2022-08-21T15:51:16;5.05;;;2.50;;
64633;SDS011;51043;52.406;9.690;2022-08-21T15:53:43;6.10;;;2.40;;
64633;SDS011;51043;52.406;9.690;2022-08-21T15:56:28;5.03;;;2.13;;
64633;SDS011;51043;52.406;9.690;2022-08-21T15:59:03;6.10;;;2.13;;
64633;SDS011;51043;52.406;9.690;2022-08-21T16:01:34;5.72;;;2.15;;
64633;SDS011;51043;52.406;9.690;2022-08-21T16:04:02;5.22;;;2.13;;
64633;SDS011;51043;52.406;9.690;2022-08-21T16:06:30;4.93;;;2.10;;
64633;SDS011;51043;52.406;9.690;2022-08-21T16:08:58;6.57;;;2.10;;
64633;SDS011;51043;52.406;9.690;2022-08-21T16:11:26;7.40;;;2.10;;
64633;SDS011;51043;52.406;9.690;2022-08-21T16:13:54;6.50;;;2.10;;
64633;SDS011;51043;52.406;9.690;2022-08-21T16:16:23;5.60;;;2.30;;
64633;SDS011;51043;52.406;9.690;2022-08-21T16:18:50;5.15;;;2.10;;
64633;SDS011;51043;52.406;9.690;2022-08-21T16:21:18;8.88;;;2.40;;
64633;SDS011;51043;52.406;9.690;2022-08-21T16:23:45;6.82;;;2.15;;
64633;SDS011;51043;52.406;9.690;2022-08-21T16:26:14;6.20;;;2.38;;
64633;SDS011;51043;52.406;9.690;2022-08-21T16:28:52;7.32;;;2.03;;